Time;durP1;ratioP1;P1;durP2;ratioP2;P2;SDS_P1;SDS_P2;PMS_P1;PMS_P2;Temp;Humidity;BMP_temperature;BMP_pressure;BME280_temperature;BME280_humidity;BME280_pressure;Samples;Min_cycle;Max_cycle;Signal;HPM_P1;HPM_P2
2022/06/10 00:00:37;;;;;;;8.60;2.17;;;;;;;;;;5067465;28;20781;-77
2022/06/10 00:03:03;;;;;;;8.90;2.50;;;;;;;;;;5055936;28;20441;-77
2022/06/10 00:05:31;;;;;;;8.43;2.40;;;;;;;;;;5072722;28;20040;-77
2022/06/10 00:07:57;;;;;;;9.40;2.40;;;;;;;;;;5084142;28;20083;-77
2022/06/10 00:10:24;;;;;;;15.82;3.05;;;;;;;;;;5065970;28;20032;-77
2022/06/10 00:12:50;;;;;;;11.73;3.00;;;;;;;;;;5066229;28;20044;-77
2022/06/10 00:15:17;;;;;;;7.57;2.58;;;;;;;;;;5053319;28;20778;-76
2022/06/10 00:17:43;;;;;;;9.13;2.85;;;;;;;;;;5060661;28;20111;-77
2022/06/10 00:20:12;;;;;;;13.20;3.13;;;;;;;;;;5057209;28;20504;-77
2022/06/10 00:22:38;;;;;;;10.52;3.00;;;;;;;;;;5068577;28;20036;-76
2022/06/10 00:25:05;;;;;;;10.32;3.00;;;;;;;;;;5074120;28;20036;-77
2022/06/10 00:27:31;;;;;;;8.88;2.95;;;;;;;;;;5075699;28;20478;-77
2022/06/10 00:29:57;;;;;;;9.25;3.00;;;;;;;;;;5070840;28;20041;-77
2022/06/10 00:32:23;;;;;;;10.75;3.22;;;;;;;;;;5072886;28;20045;-77
2022/06/10 00:34:49;;;;;;;11.38;3.42;;;;;;;;;;5076861;28;20406;-77
2022/06/10 00:37:15;;;;;;;12.90;3.80;;;;;;;;;;5068478;28;20043;-77
2022/06/10 00:39:41;;;;;;;10.07;3.55;;;;;;;;;;5077222;28;20490;-78
2022/06/10 00:42:08;;;;;;;12.60;3.35;;;;;;;;;;5073172;28;20053;-77
2022/06/10 00:44:37;;;;;;;11.30;3.30;;;;;;;;;;5075177;28;20118;-78
2022/06/10 00:47:06;;;;;;;14.48;3.63;;;;;;;;;;5076855;28;20040;-78
2022/06/10 00:49:32;;;;;;;12.45;3.50;;;;;;;;;;5067577;28;20041;-77
2022/06/10 00:51:59;;;;;;;12.00;3.63;;;;;;;;;;5069058;28;20047;-78
2022/06/10 00:54:28;;;;;;;10.02;3.65;;;;;;;;;;5072417;28;20037;-78
2022/06/10 00:57:15;;;;;;;10.05;3.90;;;;;;;;;;5064247;28;20043;-78
2022/06/10 00:59:43;;;;;;;14.93;3.80;;;;;;;;;;5066602;28;20044;-78
2022/06/10 01:02:12;;;;;;;12.60;3.83;;;;;;;;;;5059370;28;20037;-77
2022/06/10 01:04:40;;;;;;;13.63;4.15;;;;;;;;;;5065929;28;20052;-78
2022/06/10 01:07:07;;;;;;;11.90;3.70;;;;;;;;;;5063409;28;20036;-77
2022/06/10 01:09:34;;;;;;;13.50;3.88;;;;;;;;;;5063196;28;20041;-77
2022/06/10 01:12:19;;;;;;;10.05;4.13;;;;;;;;;;5082603;28;20036;-77
2022/06/10 01:14:49;;;;;;;10.85;3.88;;;;;;;;;;5056254;28;20124;-77
2022/06/10 01:17:16;;;;;;;11.65;4.00;;;;;;;;;;5074822;28;20049;-77
2022/06/10 01:20:02;;;;;;;11.63;3.97;;;;;;;;;;5068379;28;20064;-78
2022/06/10 01:22:28;;;;;;;11.23;3.75;;;;;;;;;;5084527;28;20051;-78
2022/06/10 01:25:13;;;;;;;11.77;3.70;;;;;;;;;;5084982;28;20036;-78
2022/06/10 01:27:54;;;;;;;12.45;3.80;;;;;;;;;;5077570;28;20052;-78
2022/06/10 01:30:20;;;;;;;8.93;3.20;;;;;;;;;;5070708;28;20097;-79
2022/06/10 01:32:57;;;;;;;11.05;3.55;;;;;;;;;;5067245;28;20036;-78
2022/06/10 01:35:32;;;;;;;14.80;4.18;;;;;;;;;;5075132;28;20132;-78
2022/06/10 01:38:04;;;;;;;10.90;3.92;;;;;;;;;;5061642;28;20045;-77
2022/06/10 01:40:42;;;;;;;11.43;3.38;;;;;;;;;;5067432;28;20483;-78
2022/06/10 01:43:14;;;;;;;13.75;4.57;;;;;;;;;;5074712;28;20510;-77
2022/06/10 01:45:45;;;;;;;13.70;3.58;;;;;;;;;;5069580;28;20055;-78
2022/06/10 01:48:11;;;;;;;12.38;3.75;;;;;;;;;;5076454;28;20048;-77
2022/06/10 01:50:42;;;;;;;11.15;3.83;;;;;;;;;;5075514;28;20106;-78
2022/06/10 01:53:12;;;;;;;10.73;3.58;;;;;;;;;;5059861;28;20036;-78
2022/06/10 01:55:48;;;;;;;10.77;3.15;;;;;;;;;;5075729;28;20136;-77
2022/06/10 01:58:19;;;;;;;9.93;3.30;;;;;;;;;;5076995;28;20040;-77
2022/06/10 02:00:45;;;;;;;;;;;;;;;;;;5066300;28;20048;-77
2022/06/10 02:03:17;;;;;;;10.68;3.22;;;;;;;;;;5055832;28;20293;-78
2022/06/10 02:05:49;;;;;;;13.50;3.33;;;;;;;;;;5065472;28;20040;-78
2022/06/10 02:08:18;;;;;;;9.27;3.10;;;;;;;;;;5054044;28;20052;-77
2022/06/10 02:10:48;;;;;;;11.48;3.17;;;;;;;;;;5057121;28;20483;-78
2022/06/10 02:13:17;;;;;;;9.67;3.67;;;;;;;;;;5057992;28;20045;-77
2022/06/10 02:15:52;;;;;;;11.52;3.45;;;;;;;;;;5069358;28;20041;-78
2022/06/10 02:18:38;;;;;;;12.55;4.13;;;;;;;;;;5073256;28;20055;-78
2022/06/10 02:21:11;;;;;;;15.82;3.80;;;;;;;;;;5051671;28;20063;-78
2022/06/10 02:23:42;;;;;;;13.10;3.75;;;;;;;;;;5074059;28;20048;-78
2022/06/10 02:26:09;;;;;;;11.02;3.28;;;;;;;;;;5070833;28;20498;-78
2022/06/10 02:28:37;;;;;;;11.85;3.75;;;;;;;;;;5054448;28;20052;-78
2022/06/10 02:31:23;;;;;;;10.30;3.10;;;;;;;;;;5078611;28;20056;-78
2022/06/10 02:33:49;;;;;;;11.15;3.17;;;;;;;;;;5069762;28;20060;-78
2022/06/10 02:36:23;;;;;;;12.88;3.45;;;;;;;;;;5079013;28;20043;-77
2022/06/10 02:38:57;;;;;;;10.98;3.20;;;;;;;;;;5060562;28;20127;-76
2022/06/10 02:41:42;;;;;;;12.35;3.42;;;;;;;;;;5073191;28;20052;-77
2022/06/10 02:44:15;;;;;;;12.88;3.47;;;;;;;;;;5072839;28;20112;-78
2022/06/10 02:46:48;;;;;;;11.50;3.53;;;;;;;;;;5071565;28;20044;-78
2022/06/10 02:49:15;;;;;;;10.80;3.40;;;;;;;;;;5054712;28;20051;-78
2022/06/10 02:51:42;;;;;;;13.82;3.67;;;;;;;;;;5065577;28;20064;-77
2022/06/10 02:54:12;;;;;;;8.98;3.33;;;;;;;;;;5056683;28;20036;-77
2022/06/10 02:56:38;;;;;;;9.52;3.38;;;;;;;;;;5061153;28;20432;-77
2022/06/10 03:01:51;;;;;;;13.00;3.30;;;;;;;;;;5056068;28;20403;-77
2022/06/10 03:04:36;;;;;;;10.57;2.95;;;;;;;;;;5054695;28;20032;-78
2022/06/10 03:07:11;;;;;;;9.02;3.30;;;;;;;;;;5055779;28;20067;-77
2022/06/10 03:09:43;;;;;;;13.15;3.03;;;;;;;;;;5060595;28;20049;-77
2022/06/10 03:12:19;;;;;;;10.40;3.25;;;;;;;;;;5053523;28;20398;-78
2022/06/10 03:15:17;;;;;;;11.23;2.90;;;;;;;;;;5053595;28;20041;-77
2022/06/10 03:17:49;;;;;;;12.35;3.17;;;;;;;;;;5025699;28;20053;-77
2022/06/10 03:20:18;;;;;;;10.75;3.25;;;;;;;;;;5031586;28;20053;-77
2022/06/10 03:23:03;;;;;;;10.10;2.92;;;;;;;;;;5018392;28;20049;-77
2022/06/10 03:25:32;;;;;;;10.15;3.33;;;;;;;;;;5015863;28;20041;-77
2022/06/10 03:27:58;;;;;;;11.05;3.33;;;;;;;;;;5023653;28;20053;-77
2022/06/10 03:30:27;;;;;;;14.27;3.50;;;;;;;;;;5031840;28;20037;-77
2022/06/10 03:33:05;;;;;;;10.85;3.30;;;;;;;;;;5022985;28;20045;-77
2022/06/10 03:35:37;;;;;;;11.23;3.35;;;;;;;;;;5014380;28;20077;-77
2022/06/10 03:38:04;;;;;;;10.50;3.55;;;;;;;;;;5015877;28;20054;-77
2022/06/10 03:40:31;;;;;;;12.13;4.20;;;;;;;;;;5029493;28;20049;-77
2022/06/10 03:42:58;;;;;;;13.55;3.80;;;;;;;;;;5024550;28;20088;-78
2022/06/10 03:45:29;;;;;;;8.93;3.53;;;;;;;;;;5011834;28;20054;-78
2022/06/10 03:47:56;;;;;;;13.05;4.10;;;;;;;;;;5022413;28;20408;-78
2022/06/10 03:50:24;;;;;;;11.48;3.70;;;;;;;;;;5031495;28;20045;-78
2022/06/10 03:52:50;;;;;;;12.30;3.97;;;;;;;;;;5033493;28;20580;-78
2022/06/10 03:55:17;;;;;;;13.93;4.10;;;;;;;;;;5071626;28;20040;-78
2022/06/10 03:57:44;;;;;;;11.52;4.18;;;;;;;;;;5071370;28;20045;-78
2022/06/10 04:00:14;;;;;;;10.73;4.03;;;;;;;;;;5087829;28;20133;-77
2022/06/10 04:02:40;;;;;;;10.90;4.10;;;;;;;;;;5063529;28;20383;-78
2022/06/10 04:05:08;;;;;;;11.18;4.32;;;;;;;;;;5073376;28;20106;-78
2022/06/10 04:07:34;;;;;;;10.43;4.22;;;;;;;;;;5061676;28;20044;-78
2022/06/10 04:10:00;;;;;;;8.50;3.40;;;;;;;;;;5072965;28;20044;-77
2022/06/10 04:12:27;;;;;;;12.63;4.30;;;;;;;;;;5072445;28;20040;-77
2022/06/10 04:14:53;;;;;;;9.25;4.18;;;;;;;;;;5073426;28;20094;-77
2022/06/10 04:17:19;;;;;;;9.73;3.60;;;;;;;;;;5066868;28;20041;-77
2022/06/10 04:19:45;;;;;;;14.10;3.78;;;;;;;;;;5056573;28;20123;-78
2022/06/10 04:22:11;;;;;;;10.00;3.63;;;;;;;;;;5069430;28;20076;-78
2022/06/10 04:24:37;;;;;;;10.00;3.42;;;;;;;;;;5064359;28;20080;-78
2022/06/10 04:27:03;;;;;;;9.73;3.22;;;;;;;;;;5059595;28;22006;-77
2022/06/10 04:29:30;;;;;;;9.52;2.70;;;;;;;;;;5052265;28;20394;-78
2022/06/10 04:31:56;;;;;;;9.07;2.92;;;;;;;;;;5052789;28;20111;-77
2022/06/10 04:34:22;;;;;;;8.55;3.10;;;;;;;;;;5055824;28;20076;-78
2022/06/10 04:36:48;;;;;;;7.63;3.03;;;;;;;;;;5061739;28;20060;-78
2022/06/10 04:39:14;;;;;;;9.85;3.10;;;;;;;;;;5046790;28;20060;-77
2022/06/10 04:41:40;;;;;;;10.93;3.35;;;;;;;;;;5072786;28;20487;-77
2022/06/10 04:44:07;;;;;;;8.82;3.30;;;;;;;;;;5061098;28;20053;-77
2022/06/10 04:46:38;;;;;;;10.38;3.20;;;;;;;;;;5066975;28;20049;-79
2022/06/10 04:49:05;;;;;;;10.98;3.70;;;;;;;;;;5052812;28;20037;-78
2022/06/10 04:51:31;;;;;;;9.80;3.55;;;;;;;;;;5055564;28;20044;-78
2022/06/10 04:53:57;;;;;;;8.43;3.38;;;;;;;;;;5052363;28;20378;-77
2022/06/10 04:56:23;;;;;;;13.13;3.80;;;;;;;;;;5053268;28;20052;-76
2022/06/10 04:58:49;;;;;;;11.20;3.83;;;;;;;;;;5069212;28;20445;-77
2022/06/10 05:01:15;;;;;;;12.43;4.13;;;;;;;;;;5057315;28;20047;-77
2022/06/10 05:03:42;;;;;;;10.75;3.58;;;;;;;;;;5078980;28;20102;-78
2022/06/10 05:06:08;;;;;;;13.52;4.60;;;;;;;;;;5081727;28;20528;-77
2022/06/10 05:08:34;;;;;;;12.05;4.07;;;;;;;;;;5059104;28;20041;-78
2022/06/10 05:11:00;;;;;;;10.32;3.92;;;;;;;;;;5057569;28;20048;-77
2022/06/10 05:13:26;;;;;;;12.63;4.20;;;;;;;;;;5067292;28;20032;-77
2022/06/10 05:15:53;;;;;;;16.42;4.53;;;;;;;;;;5058967;28;20045;-77
2022/06/10 05:18:20;;;;;;;12.20;4.43;;;;;;;;;;5056549;28;20082;-77
2022/06/10 05:20:47;;;;;;;19.65;4.78;;;;;;;;;;5072861;28;20044;-77
2022/06/10 05:23:14;;;;;;;11.00;4.50;;;;;;;;;;5074548;28;20049;-77
2022/06/10 05:25:41;;;;;;;13.95;4.80;;;;;;;;;;5075289;28;20052;-77
2022/06/10 05:28:07;;;;;;;12.77;4.65;;;;;;;;;;5063807;28;20040;-77
2022/06/10 05:30:34;;;;;;;13.95;3.92;;;;;;;;;;5081095;28;20397;-78
2022/06/10 05:33:01;;;;;;;11.95;4.30;;;;;;;;;;5070166;28;20082;-78
2022/06/10 05:35:28;;;;;;;10.90;3.78;;;;;;;;;;5056005;28;20068;-78
2022/06/10 05:37:54;;;;;;;11.98;3.80;;;;;;;;;;5059551;28;20055;-78
2022/06/10 05:40:21;;;;;;;12.88;3.25;;;;;;;;;;5054560;28;20502;-75
2022/06/10 05:42:47;;;;;;;9.88;3.25;;;;;;;;;;5063788;28;20068;-76
2022/06/10 05:45:17;;;;;;;12.55;3.03;;;;;;;;;;5066380;28;20487;-75
2022/06/10 05:47:44;;;;;;;12.35;3.33;;;;;;;;;;5055512;28;20057;-75
2022/06/10 05:50:13;;;;;;;10.65;3.08;;;;;;;;;;5055312;28;20475;-76
2022/06/10 05:52:40;;;;;;;11.82;3.70;;;;;;;;;;5055216;28;20450;-76
2022/06/10 05:55:07;;;;;;;10.35;2.88;;;;;;;;;;5054964;28;20044;-75
2022/06/10 05:57:33;;;;;;;10.38;2.75;;;;;;;;;;5042183;28;20407;-75
2022/06/10 05:59:59;;;;;;;9.88;2.97;;;;;;;;;;5095529;28;20040;-75
2022/06/10 06:02:26;;;;;;;8.73;2.80;;;;;;;;;;5064343;28;20041;-74
2022/06/10 06:04:52;;;;;;;12.35;3.10;;;;;;;;;;5069186;28;20111;-74
2022/06/10 06:07:22;;;;;;;12.07;3.15;;;;;;;;;;5068959;28;20115;-75
2022/06/10 06:09:48;;;;;;;11.63;2.83;;;;;;;;;;5063936;28;20048;-74
2022/06/10 06:12:14;;;;;;;12.32;3.22;;;;;;;;;;5074563;28;20128;-74
2022/06/10 06:14:41;;;;;;;10.52;3.45;;;;;;;;;;5074809;28;20048;-74
2022/06/10 06:17:07;;;;;;;12.30;3.40;;;;;;;;;;5073517;28;20048;-75
2022/06/10 06:19:34;;;;;;;13.35;3.67;;;;;;;;;;5073340;28;20044;-75
2022/06/10 06:22:00;;;;;;;12.80;3.70;;;;;;;;;;5053154;28;20400;-75
2022/06/10 06:24:26;;;;;;;11.40;3.75;;;;;;;;;;5054821;28;20102;-74
2022/06/10 06:26:53;;;;;;;13.85;3.75;;;;;;;;;;5054222;28;20037;-74
2022/06/10 06:29:19;;;;;;;12.80;3.53;;;;;;;;;;5054689;28;20087;-74
2022/06/10 06:31:45;;;;;;;11.32;4.22;;;;;;;;;;5068474;28;20040;-75
2022/06/10 06:34:11;;;;;;;16.80;3.97;;;;;;;;;;5068966;28;20053;-75
2022/06/10 06:36:42;;;;;;;12.20;4.03;;;;;;;;;;5070640;28;20494;-75
2022/06/10 06:39:08;;;;;;;12.87;3.70;;;;;;;;;;5054214;28;20052;-75
2022/06/10 06:41:34;;;;;;;11.85;3.45;;;;;;;;;;5072478;28;20290;-74
2022/06/10 06:44:04;;;;;;;11.85;3.40;;;;;;;;;;5073899;28;20052;-76
2022/06/10 06:46:31;;;;;;;13.40;3.47;;;;;;;;;;5072645;28;20414;-74
2022/06/10 06:48:57;;;;;;;14.27;3.45;;;;;;;;;;5075523;28;20505;-74
2022/06/10 06:51:23;;;;;;;12.07;3.92;;;;;;;;;;5074244;28;20076;-75
2022/06/10 06:53:50;;;;;;;12.40;4.05;;;;;;;;;;5072795;28;20445;-75
2022/06/10 06:56:16;;;;;;;11.40;3.72;;;;;;;;;;5073526;28;20049;-75
2022/06/10 06:58:42;;;;;;;12.23;3.95;;;;;;;;;;5073419;28;20084;-75
2022/06/10 07:01:09;;;;;;;13.30;3.95;;;;;;;;;;5073835;28;20091;-75
2022/06/10 07:03:35;;;;;;;14.77;4.28;;;;;;;;;;5070690;28;20045;-75
2022/06/10 07:06:01;;;;;;;14.68;4.13;;;;;;;;;;5070843;28;20098;-75
2022/06/10 07:08:31;;;;;;;11.98;4.00;;;;;;;;;;5073470;28;20074;-74
2022/06/10 07:11:00;;;;;;;10.32;4.13;;;;;;;;;;5069023;28;20050;-75
2022/06/10 07:13:26;;;;;;;12.95;3.92;;;;;;;;;;5068566;28;20086;-75
2022/06/10 07:15:53;;;;;;;13.85;4.22;;;;;;;;;;5066453;28;20079;-75
2022/06/10 07:18:19;;;;;;;13.40;3.83;;;;;;;;;;5073540;28;20040;-75
2022/06/10 07:20:45;;;;;;;15.40;3.90;;;;;;;;;;5072500;28;20118;-75
2022/06/10 07:23:11;;;;;;;10.35;3.55;;;;;;;;;;5073315;28;20491;-76
2022/06/10 07:25:37;;;;;;;10.18;4.00;;;;;;;;;;5063553;28;20052;-75
2022/06/10 07:28:04;;;;;;;12.10;4.35;;;;;;;;;;5067666;28;20040;-75
2022/06/10 07:30:31;;;;;;;11.80;4.03;;;;;;;;;;5061590;28;20101;-76
2022/06/10 07:32:58;;;;;;;13.93;4.82;;;;;;;;;;5053562;28;20053;-76
2022/06/10 07:35:24;;;;;;;11.55;4.70;;;;;;;;;;5070403;28;20604;-75
2022/06/10 07:37:51;;;;;;;16.45;5.47;;;;;;;;;;5073302;28;20074;-74
2022/06/10 07:43:07;;;;;;;14.90;5.57;;;;;;;;;;5072634;28;20508;-77
2022/06/10 07:45:33;;;;;;;13.43;5.38;;;;;;;;;;5072113;28;20067;-77
2022/06/10 07:47:59;;;;;;;12.23;4.55;;;;;;;;;;5059908;28;20047;-80
2022/06/10 07:50:25;;;;;;;11.63;4.43;;;;;;;;;;5073597;28;20527;-79
2022/06/10 07:52:51;;;;;;;10.80;5.18;;;;;;;;;;5074248;28;20044;-82
2022/06/10 07:55:18;;;;;;;13.73;5.20;;;;;;;;;;5077182;28;20491;-80
2022/06/10 07:57:44;;;;;;;10.85;5.07;;;;;;;;;;5073911;28;20044;-78
2022/06/10 08:00:11;;;;;;;13.00;5.20;;;;;;;;;;5075157;28;20158;-80
2022/06/10 08:02:38;;;;;;;12.27;5.20;;;;;;;;;;5074436;28;20089;-78
2022/06/10 08:05:05;;;;;;;9.68;4.72;;;;;;;;;;5074642;28;20617;-78
2022/06/10 08:07:31;;;;;;;10.82;5.18;;;;;;;;;;5075904;28;20491;-78
2022/06/10 08:09:57;;;;;;;11.38;4.78;;;;;;;;;;5073586;28;20506;-78
2022/06/10 08:12:23;;;;;;;10.70;4.78;;;;;;;;;;5075381;28;20041;-78
2022/06/10 08:14:49;;;;;;;12.05;4.97;;;;;;;;;;5074937;28;20044;-79
2022/06/10 08:17:16;;;;;;;11.38;4.68;;;;;;;;;;5075405;28;20040;-78
2022/06/10 08:19:42;;;;;;;11.02;5.15;;;;;;;;;;5074969;28;20041;-78
2022/06/10 08:24:54;;;;;;;14.02;4.82;;;;;;;;;;5054219;28;20542;-78
2022/06/10 08:27:22;;;;;;;15.95;4.75;;;;;;;;;;5054328;28;20399;-79
2022/06/10 08:29:48;;;;;;;10.52;4.40;;;;;;;;;;5075855;28;20049;-78
2022/06/10 08:32:14;;;;;;;15.80;4.20;;;;;;;;;;5062440;28;20095;-78
2022/06/10 08:34:43;;;;;;;10.35;4.70;;;;;;;;;;5055652;28;20446;-78
2022/06/10 08:37:10;;;;;;;12.25;4.82;;;;;;;;;;5055606;28;20052;-77
2022/06/10 08:39:36;;;;;;;11.15;4.43;;;;;;;;;;5065208;28;20083;-78
2022/06/10 08:42:11;;;;;;;12.85;4.47;;;;;;;;;;5059546;28;20036;-77
2022/06/10 08:44:50;;;;;;;12.82;4.30;;;;;;;;;;5058206;28;20625;-78
2022/06/10 08:47:16;;;;;;;14.00;4.80;;;;;;;;;;5059387;28;20057;-77
2022/06/10 08:50:01;;;;;;;10.93;4.72;;;;;;;;;;5057570;28;20099;-78
2022/06/10 08:52:27;;;;;;;14.38;4.65;;;;;;;;;;5058493;28;20048;-78
2022/06/10 08:55:00;;;;;;;12.05;4.70;;;;;;;;;;5077393;28;20048;-78
2022/06/10 08:57:32;;;;;;;10.60;4.43;;;;;;;;;;5082069;28;20131;-77
2022/06/10 08:59:59;;;;;;;13.93;4.30;;;;;;;;;;5075825;28;20098;-79
2022/06/10 09:02:38;;;;;;;12.10;4.00;;;;;;;;;;5075552;28;20041;-78
2022/06/10 09:05:14;;;;;;;16.02;4.25;;;;;;;;;;5076407;28;20036;-77
2022/06/10 09:07:46;;;;;;;15.82;4.70;;;;;;;;;;5078066;28;20148;-77
2022/06/10 09:10:22;;;;;;;13.15;3.97;;;;;;;;;;5077130;28;20044;-77
2022/06/10 09:13:02;;;;;;;15.93;4.68;;;;;;;;;;5076897;28;20048;-78
2022/06/10 09:15:29;;;;;;;12.30;3.40;;;;;;;;;;5057436;28;20045;-78
2022/06/10 09:17:58;;;;;;;12.45;3.63;;;;;;;;;;5040721;28;20045;-77
2022/06/10 09:20:40;;;;;;;12.45;3.53;;;;;;;;;;5092634;28;20040;-76
2022/06/10 09:23:15;;;;;;;15.30;3.75;;;;;;;;;;5088944;28;20053;-79
2022/06/10 09:25:46;;;;;;;10.10;3.42;;;;;;;;;;5058110;28;20053;-76
2022/06/10 09:28:12;;;;;;;;;;;;;;;;;;5059879;28;20048;-77
2022/06/10 09:30:44;;;;;;;15.60;3.85;;;;;;;;;;5068370;28;20370;-77
2022/06/10 09:33:16;;;;;;;13.13;4.40;;;;;;;;;;5080230;28;20040;-78
2022/06/10 09:35:48;;;;;;;13.73;4.03;;;;;;;;;;5077413;28;20059;-77
2022/06/10 09:38:34;;;;;;;10.95;3.80;;;;;;;;;;5077112;28;20036;-77
2022/06/10 09:41:19;;;;;;;11.95;4.10;;;;;;;;;;5062178;28;20052;-77
2022/06/10 09:44:05;;;;;;;12.10;3.80;;;;;;;;;;5058597;28;20057;-77
2022/06/10 09:46:39;;;;;;;12.77;4.18;;;;;;;;;;5049066;28;20056;-76
2022/06/10 09:49:24;;;;;;;11.38;3.88;;;;;;;;;;5079400;28;20072;-78
2022/06/10 09:51:58;;;;;;;11.98;4.38;;;;;;;;;;5077533;28;20036;-77
2022/06/10 09:54:43;;;;;;;10.90;3.70;;;;;;;;;;5078198;28;20044;-78
2022/06/10 09:57:18;;;;;;;11.35;4.15;;;;;;;;;;5078501;28;20036;-77
2022/06/10 10:00:03;;;;;;;10.93;3.63;;;;;;;;;;5077963;28;20131;-76
2022/06/10 10:02:34;;;;;;;10.88;4.15;;;;;;;;;;5075760;28;20094;-78
2022/06/10 10:05:00;;;;;;;13.15;4.20;;;;;;;;;;5069185;28;20063;-77
2022/06/10 10:07:45;;;;;;;13.38;3.92;;;;;;;;;;5074709;28;20044;-79
2022/06/10 10:10:14;;;;;;;14.13;4.20;;;;;;;;;;5066124;28;20048;-78
2022/06/10 10:12:40;;;;;;;9.55;3.75;;;;;;;;;;5068297;28;20127;-78
2022/06/10 10:15:21;;;;;;;12.90;3.70;;;;;;;;;;5059817;28;20052;-79
2022/06/10 10:17:54;;;;;;;10.10;4.03;;;;;;;;;;5072094;28;20052;-77
2022/06/10 10:20:27;;;;;;;12.85;3.97;;;;;;;;;;5063770;28;20110;-78
2022/06/10 10:22:58;;;;;;;12.38;4.15;;;;;;;;;;5072116;28;20398;-76
2022/06/10 10:25:26;;;;;;;10.23;3.80;;;;;;;;;;5072710;28;20056;-75
2022/06/10 10:27:53;;;;;;;10.20;3.67;;;;;;;;;;5074443;28;20467;-76
2022/06/10 10:30:32;;;;;;;10.98;3.80;;;;;;;;;;5074140;28;20050;-75
2022/06/10 10:33:00;;;;;;;11.80;3.45;;;;;;;;;;5058810;28;20045;-74
2022/06/10 10:35:34;;;;;;;11.88;3.40;;;;;;;;;;5068899;28;20041;-75
2022/06/10 10:38:02;;;;;;;14.60;3.75;;;;;;;;;;5070461;28;20059;-74
2022/06/10 10:40:35;;;;;;;9.40;2.90;;;;;;;;;;5065629;28;20044;-75
2022/06/10 10:43:04;;;;;;;10.35;3.15;;;;;;;;;;5069709;28;20057;-76
2022/06/10 10:45:32;;;;;;;10.77;2.88;;;;;;;;;;5053764;28;20052;-74
2022/06/10 10:48:17;;;;;;;11.10;2.97;;;;;;;;;;5073534;28;20415;-75
2022/06/10 10:50:52;;;;;;;11.10;2.95;;;;;;;;;;5061884;28;20502;-75
2022/06/10 10:53:27;;;;;;;11.85;2.90;;;;;;;;;;5055624;28;20056;-76
2022/06/10 10:55:55;;;;;;;12.52;3.20;;;;;;;;;;5064996;28;20044;-76
2022/06/10 10:58:31;;;;;;;8.98;3.17;;;;;;;;;;5066478;28;20608;-76
2022/06/10 11:01:02;;;;;;;13.57;2.97;;;;;;;;;;5055921;28;20045;-75
2022/06/10 11:03:37;;;;;;;13.40;3.50;;;;;;;;;;5071089;28;20063;-75
2022/06/10 11:06:07;;;;;;;10.82;2.80;;;;;;;;;;5073175;28;20101;-75
2022/06/10 11:08:34;;;;;;;8.95;2.72;;;;;;;;;;5073467;28;20099;-75
2022/06/10 11:11:12;;;;;;;12.73;3.00;;;;;;;;;;5068998;28;20051;-75
2022/06/10 11:13:42;;;;;;;12.32;3.08;;;;;;;;;;5066021;28;20479;-75
2022/06/10 11:16:26;;;;;;;12.52;2.70;;;;;;;;;;5052061;28;20544;-75
2022/06/10 11:19:05;;;;;;;9.80;2.28;;;;;;;;;;5053379;28;20127;-76
2022/06/10 11:21:31;;;;;;;10.43;2.60;;;;;;;;;;5053093;28;20128;-75
2022/06/10 11:23:58;;;;;;;9.30;2.50;;;;;;;;;;5053372;28;20133;-76
2022/06/10 11:26:26;;;;;;;11.65;3.08;;;;;;;;;;5053190;28;20055;-76
2022/06/10 11:28:59;;;;;;;9.65;2.60;;;;;;;;;;5070712;28;20555;-76
2022/06/10 11:31:35;;;;;;;11.10;3.35;;;;;;;;;;5073158;28;20058;-75
2022/06/10 11:34:03;;;;;;;11.38;3.30;;;;;;;;;;5072027;28;20047;-75
2022/06/10 11:36:36;;;;;;;11.75;2.85;;;;;;;;;;5062222;28;20037;-75
2022/06/10 11:39:13;;;;;;;11.15;3.17;;;;;;;;;;5072358;28;20048;-75
2022/06/10 11:41:39;;;;;;;11.32;3.30;;;;;;;;;;5073069;28;20044;-75
2022/06/10 11:44:11;;;;;;;13.65;3.95;;;;;;;;;;5054234;28;20064;-74
2022/06/10 11:46:37;;;;;;;13.25;3.50;;;;;;;;;;5063944;28;20109;-75
2022/06/10 11:49:10;;;;;;;11.05;3.38;;;;;;;;;;5073113;28;20495;-75
2022/06/10 11:51:48;;;;;;;13.35;3.38;;;;;;;;;;5072899;28;20507;-75
2022/06/10 11:54:34;;;;;;;10.65;3.60;;;;;;;;;;5053456;28;20090;-75
2022/06/10 12:00:09;;;;;;;9.38;3.20;;;;;;;;;;5061114;28;20060;-76
2022/06/10 12:02:39;;;;;;;13.48;3.90;;;;;;;;;;5059109;28;20041;-75
2022/06/10 12:05:12;;;;;;;9.07;2.90;;;;;;;;;;5054958;28;20037;-75
2022/06/10 12:07:43;;;;;;;10.48;2.72;;;;;;;;;;5057522;28;20040;-75
2022/06/10 12:10:09;;;;;;;;;;;;;;;;;;5083411;28;20571;-76
2022/06/10 12:12:38;;;;;;;11.10;2.80;;;;;;;;;;5072484;28;19967;-75
2022/06/10 12:15:16;;;;;;;10.88;2.50;;;;;;;;;;5069225;28;20119;-75
2022/06/10 12:17:43;;;;;;;10.82;3.28;;;;;;;;;;5060718;28;20041;-75
2022/06/10 12:20:09;;;;;;;9.45;2.75;;;;;;;;;;5067222;28;20131;-76
2022/06/10 12:22:35;;;;;;;9.18;2.30;;;;;;;;;;5067236;28;20495;-75
2022/06/10 12:25:02;;;;;;;10.23;2.30;;;;;;;;;;5066658;28;20056;-75
2022/06/10 12:27:46;;;;;;;9.63;2.67;;;;;;;;;;5071911;28;20045;-77
2022/06/10 12:30:22;;;;;;;8.38;2.88;;;;;;;;;;5076997;28;20098;-76
2022/06/10 12:33:01;;;;;;;14.57;2.80;;;;;;;;;;5063019;28;20049;-75
2022/06/10 12:35:32;;;;;;;7.50;2.67;;;;;;;;;;5059593;28;20103;-77
2022/06/10 12:38:03;;;;;;;13.65;2.70;;;;;;;;;;5092842;28;20419;-77
2022/06/10 12:40:39;;;;;;;10.27;2.97;;;;;;;;;;5093503;28;20547;-75
2022/06/10 12:43:10;;;;;;;11.13;2.70;;;;;;;;;;5053581;28;20629;-75
2022/06/10 12:45:45;;;;;;;8.95;2.13;;;;;;;;;;5056334;28;20057;-76
2022/06/10 12:48:13;;;;;;;11.25;2.00;;;;;;;;;;5061813;28;20120;-75
2022/06/10 12:50:49;;;;;;;9.25;2.33;;;;;;;;;;5076394;28;20056;-76
2022/06/10 12:53:15;;;;;;;9.75;2.30;;;;;;;;;;5071102;28;20045;-76
2022/06/10 12:55:46;;;;;;;10.90;2.20;;;;;;;;;;5072481;28;20055;-76
2022/06/10 12:58:30;;;;;;;7.97;2.40;;;;;;;;;;5075989;28;20052;-75
2022/06/10 13:01:10;;;;;;;10.93;2.30;;;;;;;;;;5075380;28;20048;-76
2022/06/10 13:03:39;;;;;;;8.85;2.55;;;;;;;;;;5069143;28;20056;-76
2022/06/10 13:06:06;;;;;;;10.68;2.20;;;;;;;;;;5056823;28;20128;-75
2022/06/10 13:08:35;;;;;;;9.60;2.30;;;;;;;;;;5058654;28;21010;-75
2022/06/10 13:11:02;;;;;;;12.77;3.28;;;;;;;;;;5075364;28;20131;-76
2022/06/10 13:13:28;;;;;;;9.32;2.42;;;;;;;;;;5054519;28;20037;-76
2022/06/10 13:15:56;;;;;;;11.32;2.33;;;;;;;;;;5055450;28;20053;-76
2022/06/10 13:18:25;;;;;;;11.43;2.55;;;;;;;;;;5070268;28;20056;-76
2022/06/10 13:20:51;;;;;;;9.43;2.45;;;;;;;;;;5066724;28;20091;-75
2022/06/10 13:23:22;;;;;;;10.23;2.30;;;;;;;;;;5066965;28;20041;-77
2022/06/10 13:25:53;;;;;;;8.35;2.17;;;;;;;;;;5073455;28;20375;-76
2022/06/10 13:28:27;;;;;;;11.55;2.58;;;;;;;;;;5066732;28;20410;-76
2022/06/10 13:31:02;;;;;;;10.43;2.50;;;;;;;;;;5055552;28;20057;-77
2022/06/10 13:33:30;;;;;;;10.65;2.30;;;;;;;;;;5072045;28;20087;-75
2022/06/10 13:35:57;;;;;;;11.77;2.50;;;;;;;;;;5075381;28;20044;-76
2022/06/10 13:38:28;;;;;;;8.98;2.42;;;;;;;;;;5074765;28;20563;-76
2022/06/10 13:43:48;;;;;;;10.95;2.33;;;;;;;;;;5061032;28;20041;-75
2022/06/10 13:46:18;;;;;;;10.63;2.40;;;;;;;;;;5075117;28;20102;-75
2022/06/10 13:48:45;;;;;;;9.77;2.38;;;;;;;;;;5055753;28;20403;-75
2022/06/10 13:51:33;;;;;;;7.30;2.20;;;;;;;;;;5055029;28;20056;-75
2022/06/10 13:54:05;;;;;;;10.80;2.17;;;;;;;;;;5054793;28;20079;-75
2022/06/10 13:56:36;;;;;;;8.90;2.33;;;;;;;;;;5072991;28;20048;-75
2022/06/10 13:59:03;;;;;;;10.00;2.10;;;;;;;;;;5066575;28;20070;-75
2022/06/10 14:01:31;;;;;;;11.43;2.30;;;;;;;;;;5074691;28;20041;-75
2022/06/10 14:04:08;;;;;;;9.15;2.58;;;;;;;;;;5061494;28;20102;-76
2022/06/10 14:06:41;;;;;;;10.57;2.47;;;;;;;;;;5054807;28;20041;-75
2022/06/10 14:09:16;;;;;;;11.02;2.50;;;;;;;;;;5056292;28;20048;-76
2022/06/10 14:11:44;;;;;;;9.95;2.22;;;;;;;;;;5063730;28;20048;-75
2022/06/10 14:14:10;;;;;;;11.98;2.50;;;;;;;;;;5074299;28;20045;-75
2022/06/10 14:16:36;;;;;;;8.73;2.15;;;;;;;;;;5074390;28;20399;-77
2022/06/10 14:19:05;;;;;;;9.98;2.33;;;;;;;;;;5074848;28;20458;-74
2022/06/10 14:21:31;;;;;;;8.05;2.35;;;;;;;;;;5072820;28;20705;-74
2022/06/10 14:24:00;;;;;;;11.43;2.80;;;;;;;;;;5067556;28;20167;-77
2022/06/10 14:26:26;;;;;;;11.35;2.42;;;;;;;;;;5055722;28;20052;-74
2022/06/10 14:29:07;;;;;;;7.20;2.08;;;;;;;;;;5065314;28;20048;-73
2022/06/10 14:31:34;;;;;;;11.90;2.63;;;;;;;;;;5077589;28;20402;-72
2022/06/10 14:34:00;;;;;;;12.63;2.75;;;;;;;;;;5076706;28;20036;-74
2022/06/10 14:36:31;;;;;;;9.57;2.30;;;;;;;;;;5075527;28;20048;-74
2022/06/10 14:39:13;;;;;;;11.73;2.55;;;;;;;;;;5066299;28;20071;-74
2022/06/10 14:41:53;;;;;;;8.40;2.30;;;;;;;;;;5055659;28;20475;-74
2022/06/10 14:44:21;;;;;;;10.95;2.85;;;;;;;;;;5056491;28;20053;-75
2022/06/10 14:47:04;;;;;;;13.13;2.72;;;;;;;;;;5075096;28;20048;-73
2022/06/10 14:49:45;;;;;;;9.73;2.70;;;;;;;;;;5078531;28;20379;-75
2022/06/10 14:52:12;;;;;;;13.20;2.60;;;;;;;;;;5075224;28;20045;-74
2022/06/10 14:54:38;;;;;;;8.43;2.15;;;;;;;;;;5072219;28;20041;-74
2022/06/10 14:57:06;;;;;;;8.00;2.08;;;;;;;;;;5061990;28;20090;-75
2022/06/10 14:59:33;;;;;;;10.90;2.60;;;;;;;;;;5079987;28;20049;-74
2022/06/10 15:02:00;;;;;;;8.60;2.10;;;;;;;;;;5065790;28;20521;-74
2022/06/10 15:04:26;;;;;;;11.20;2.22;;;;;;;;;;5090477;28;20041;-74